Green Lofoten — P3MG8 — position and weather

sailwx.info

Track history (hours):
 
Tides and Currents Weather Stations Pressure Air Temp Water Temp Dewpoint Dewpoint Depression Visibility Wind Speed Wind Dir Waves Ship Positions

Green Lofoten

Last reported at 2016-Jun-25 01:15 UTC. Time now 2016-Jun-26 17:21 UTC.
Position N 67°43' E 013°58'.

Length 98 m; draft 5.7 m.

Type: Ship. MMSI: 212857000.

Date/timePositionNaut miles runAvg speedWind from/ knotsBaromVisibWave heightAir tempDewpointWater temp
2016-Jun-25 01:15N 67°43' E 013°58'1013.0
2016-Jun-25 00:29N 67°50' E 014°17'9 0.2
2016-Jun-22 23:31N 67°56' E 014°34'8 8.8
2016-Jun-22 22:33N 67°51' E 014°18'10 8.9
2016-Jun-22 21:28N 67°44' E 013°60'12 8.8
2016-Jun-22 20:09N 67°36' E 013°37'5 8.7
2016-Jun-22 19:33N 67°33' E 013°27'  
2016-Jun-20 15:10N 59°21' E 004°40'711.3
2016-Jun-20 14:33N 59°14' E 004°41'1110.9
2016-Jun-20 13:33N 59°05' E 004°53'1111.1
2016-Jun-20 12:33N 58°55' E 005°03'1110.9
2016-Jun-20 11:33N 58°46' E 005°14'1111.2
2016-Jun-20 10:33N 58°36' E 005°25'1111.4
2016-Jun-20 09:33N 58°27' E 005°39'1212.0
2016-Jun-20 08:34N 58°19' E 005°56'1212.3
2016-Jun-20 07:33N 58°11' E 006°14'1212.3
2016-Jun-20 06:33N 58°03' E 006°31'1212.0
2016-Jun-20 05:33N 57°55' E 006°48'1111.4
2016-Jun-20 04:33N 57°52' E 007°08'2812.3
2016-Jun-20 02:16N 57°50' E 008°01'3711.8
2016-Jun-19 23:09N 57°50' E 009°10'16 9.9
2016-Jun-19 21:33N 57°49' E 009°40'1110.3
2016-Jun-19 20:27N 57°49' E 010°01'1010.9
2016-Jun-19 19:33N 57°49' E 010°20'1111.0
2016-Jun-19 18:33N 57°49' E 010°40'8 7.3
2016-Jun-19 17:26N 57°41' E 010°38'0 0.4
2016-Jun-19 16:27N 57°41' E 010°37'0 0.0
2016-Jun-19 14:30N 57°41' E 010°37'0 0.0
2016-Jun-19 13:30N 57°41' E 010°37'0 0.0
2016-Jun-19 12:27N 57°41' E 010°37'0 0.0
2016-Jun-19 08:33N 57°41' E 010°37'0 0.0
2016-Jun-19 07:30N 57°41' E 010°37'0 0.0
2016-Jun-19 06:27N 57°41' E 010°37'0 0.0
2016-Jun-19 04:33N 57°41' E 010°37'0 0.0
2016-Jun-19 02:33N 57°41' E 010°37'0 0.0
2016-Jun-19 01:27N 57°41' E 010°37'0 0.0
2016-Jun-18 22:27N 57°41' E 010°37'0 0.0
2016-Jun-18 21:21N 57°41' E 010°37'0 0.0
2016-Jun-18 19:27N 57°41' E 010°37'0 0.0
2016-Jun-18 09:21N 57°41' E 010°37'0 0.0
2016-Jun-18 08:30N 57°41' E 010°37'0 0.0
2016-Jun-18 05:24N 57°41' E 010°37'0 0.0
2016-Jun-18 01:24N 57°41' E 010°37'0 0.0
2016-Jun-17 22:21N 57°41' E 010°37'0 0.0
2016-Jun-17 21:30N 57°41' E 010°37'0 0.0
2016-Jun-17 20:33N 57°41' E 010°37'0 0.0
2016-Jun-17 19:30N 57°41' E 010°37'0 0.0
2016-Jun-17 18:33N 57°41' E 010°37'0 0.0
2016-Jun-17 17:33N 57°41' E 010°37'0 0.0
2016-Jun-17 14:18N 57°41' E 010°37'0 0.0
2016-Jun-17 13:24N 57°41' E 010°37'0 0.0
2016-Jun-17 11:21N 57°41' E 010°37'0 0.0
2016-Jun-17 10:24N 57°41' E 010°37'0 0.0
2016-Jun-17 07:30N 57°41' E 010°37'0 0.0
2016-Jun-17 06:09N 57°41' E 010°37'0 0.0
2016-Jun-17 05:33N 57°41' E 010°37'0 0.0
2016-Jun-17 04:24N 57°41' E 010°37'0 0.0
2016-Jun-17 03:21N 57°41' E 010°37'0 0.0
2016-Jun-17 02:33N 57°41' E 010°37'0 0.0
2016-Jun-17 01:06N 57°41' E 010°37'0 0.0
2016-Jun-17 00:33N 57°41' E 010°37'0 0.0
2016-Jun-16 23:33N 57°41' E 010°37'0 0.0
2016-Jun-16 22:33N 57°41' E 010°37'0 0.0
2016-Jun-16 21:30N 57°41' E 010°37'0 0.0
2016-Jun-16 20:18N 57°41' E 010°37'0 0.0
2016-Jun-16 19:27N 57°41' E 010°37'0 0.0
2016-Jun-16 18:33N 57°41' E 010°37'0 0.0
2016-Jun-16 17:33N 57°41' E 010°37'0 0.0
2016-Jun-16 16:27N 57°41' E 010°37'0 0.0
2016-Jun-16 15:33N 57°41' E 010°37'0 0.0
2016-Jun-16 14:33N 57°41' E 010°37'0 0.0
2016-Jun-16 13:33N 57°41' E 010°37'0 0.0
2016-Jun-16 12:33N 57°41' E 010°37'0 0.0
2016-Jun-16 11:27N 57°41' E 010°37'0 0.0
2016-Jun-16 10:33N 57°41' E 010°37'0 0.0
2016-Jun-16 09:33N 57°41' E 010°37'0 0.0
2016-Jun-16 08:24N 57°41' E 010°37'0 0.0
2016-Jun-16 07:33N 57°41' E 010°37'0 0.0
2016-Jun-16 06:33N 57°41' E 010°37'0 0.0
2016-Jun-16 05:33N 57°41' E 010°37'0 0.0
2016-Jun-16 04:33N 57°41' E 010°37'0 0.0
2016-Jun-16 03:33N 57°41' E 010°37'0 0.0
2016-Jun-16 02:30N 57°41' E 010°37'0 0.0
2016-Jun-16 01:33N 57°41' E 010°37'0 0.0
2016-Jun-16 00:33N 57°41' E 010°37'0 0.0
2016-Jun-15 23:30N 57°41' E 010°37'0 0.0
2016-Jun-15 22:33N 57°41' E 010°37'0 0.0
2016-Jun-15 21:18N 57°41' E 010°37'0 0.0
2016-Jun-15 20:33N 57°41' E 010°37'0 0.0
2016-Jun-15 19:33N 57°41' E 010°37'0 0.0
2016-Jun-15 18:33N 57°41' E 010°37'0 0.0
2016-Jun-15 17:33N 57°41' E 010°37'0 0.1
2016-Jun-15 16:33N 57°41' E 010°37'0 0.0
2016-Jun-15 15:33N 57°41' E 010°37'0 0.0
2016-Jun-15 14:21N 57°41' E 010°37'0 0.0
2016-Jun-15 13:33N 57°41' E 010°37'0 0.0
2016-Jun-15 12:27N 57°41' E 010°37'0 0.0
2016-Jun-15 11:33N 57°41' E 010°37'0 0.0
2016-Jun-15 09:21N 57°41' E 010°37'0 0.0
2016-Jun-15 07:33N 57°41' E 010°37'0 0.0
2016-Jun-15 06:33N 57°41' E 010°37'0 0.0
2016-Jun-15 04:33N 57°41' E 010°37'0 0.0
2016-Jun-15 03:27N 57°41' E 010°37'0 0.0
2016-Jun-15 02:18N 57°41' E 010°37'  
Track history (hours):
 
Tides and Currents Weather Stations Pressure Air Temp Water Temp Dewpoint Dewpoint Depression Visibility Wind Speed Wind Dir Waves Ship Positions

Green Lofoten

Last reported at 2016-Jun-25 01:15 UTC. Time now 2016-Jun-26 17:21 UTC.
Position N 67°43' E 013°58'.

Length 98 m; draft 5.7 m.

Type: Ship. MMSI: 212857000.

Date/timePositionNaut miles runAvg speedWind from/ knotsBaromVisibWave heightAir tempDewpointWater temp
2016-Jun-25 01:15N 67°43' E 013°58'1013.0
2016-Jun-25 00:29N 67°50' E 014°17'9 0.2
2016-Jun-22 23:31N 67°56' E 014°34'8 8.8
2016-Jun-22 22:33N 67°51' E 014°18'10 8.9
2016-Jun-22 21:28N 67°44' E 013°60'12 8.8
2016-Jun-22 20:09N 67°36' E 013°37'5 8.7
2016-Jun-22 19:33N 67°33' E 013°27'  
2016-Jun-20 15:10N 59°21' E 004°40'711.3
2016-Jun-20 14:33N 59°14' E 004°41'1110.9
2016-Jun-20 13:33N 59°05' E 004°53'1111.1
2016-Jun-20 12:33N 58°55' E 005°03'1110.9
2016-Jun-20 11:33N 58°46' E 005°14'1111.2
2016-Jun-20 10:33N 58°36' E 005°25'1111.4
2016-Jun-20 09:33N 58°27' E 005°39'1212.0
2016-Jun-20 08:34N 58°19' E 005°56'1212.3
2016-Jun-20 07:33N 58°11' E 006°14'1212.3
2016-Jun-20 06:33N 58°03' E 006°31'1212.0
2016-Jun-20 05:33N 57°55' E 006°48'1111.4
2016-Jun-20 04:33N 57°52' E 007°08'2812.3
2016-Jun-20 02:16N 57°50' E 008°01'3711.8
2016-Jun-19 23:09N 57°50' E 009°10'16 9.9
2016-Jun-19 21:33N 57°49' E 009°40'1110.3
2016-Jun-19 20:27N 57°49' E 010°01'1010.9
2016-Jun-19 19:33N 57°49' E 010°20'1111.0
2016-Jun-19 18:33N 57°49' E 010°40'8 7.3
2016-Jun-19 17:26N 57°41' E 010°38'0 0.4
2016-Jun-19 16:27N 57°41' E 010°37'0 0.0
2016-Jun-19 14:30N 57°41' E 010°37'0 0.0
2016-Jun-19 13:30N 57°41' E 010°37'0 0.0
2016-Jun-19 12:27N 57°41' E 010°37'0 0.0
2016-Jun-19 08:33N 57°41' E 010°37'0 0.0
2016-Jun-19 07:30N 57°41' E 010°37'0 0.0
2016-Jun-19 06:27N 57°41' E 010°37'0 0.0
2016-Jun-19 04:33N 57°41' E 010°37'0 0.0
2016-Jun-19 02:33N 57°41' E 010°37'0 0.0
2016-Jun-19 01:27N 57°41' E 010°37'0 0.0
2016-Jun-18 22:27N 57°41' E 010°37'0 0.0
2016-Jun-18 21:21N 57°41' E 010°37'0 0.0
2016-Jun-18 19:27N 57°41' E 010°37'0 0.0
2016-Jun-18 09:21N 57°41' E 010°37'0 0.0
2016-Jun-18 08:30N 57°41' E 010°37'0 0.0
2016-Jun-18 05:24N 57°41' E 010°37'0 0.0
2016-Jun-18 01:24N 57°41' E 010°37'0 0.0
2016-Jun-17 22:21N 57°41' E 010°37'0 0.0
2016-Jun-17 21:30N 57°41' E 010°37'0 0.0
2016-Jun-17 20:33N 57°41' E 010°37'0 0.0
2016-Jun-17 19:30N 57°41' E 010°37'0 0.0
2016-Jun-17 18:33N 57°41' E 010°37'0 0.0
2016-Jun-17 17:33N 57°41' E 010°37'0 0.0
2016-Jun-17 14:18N 57°41' E 010°37'0 0.0
2016-Jun-17 13:24N 57°41' E 010°37'0 0.0
2016-Jun-17 11:21N 57°41' E 010°37'0 0.0
2016-Jun-17 10:24N 57°41' E 010°37'0 0.0
2016-Jun-17 07:30N 57°41' E 010°37'0 0.0
2016-Jun-17 06:09N 57°41' E 010°37'0 0.0
2016-Jun-17 05:33N 57°41' E 010°37'0 0.0
2016-Jun-17 04:24N 57°41' E 010°37'0 0.0
2016-Jun-17 03:21N 57°41' E 010°37'0 0.0
2016-Jun-17 02:33N 57°41' E 010°37'0 0.0
2016-Jun-17 01:06N 57°41' E 010°37'0 0.0
2016-Jun-17 00:33N 57°41' E 010°37'0 0.0
2016-Jun-16 23:33N 57°41' E 010°37'0 0.0
2016-Jun-16 22:33N 57°41' E 010°37'0 0.0
2016-Jun-16 21:30N 57°41' E 010°37'0 0.0
2016-Jun-16 20:18N 57°41' E 010°37'0 0.0
2016-Jun-16 19:27N 57°41' E 010°37'0 0.0
2016-Jun-16 18:33N 57°41' E 010°37'0 0.0
2016-Jun-16 17:33N 57°41' E 010°37'0 0.0
2016-Jun-16 16:27N 57°41' E 010°37'0 0.0
2016-Jun-16 15:33N 57°41' E 010°37'0 0.0
2016-Jun-16 14:33N 57°41' E 010°37'0 0.0
2016-Jun-16 13:33N 57°41' E 010°37'0 0.0
2016-Jun-16 12:33N 57°41' E 010°37'0 0.0
2016-Jun-16 11:27N 57°41' E 010°37'0 0.0
2016-Jun-16 10:33N 57°41' E 010°37'0 0.0
2016-Jun-16 09:33N 57°41' E 010°37'0 0.0
2016-Jun-16 08:24N 57°41' E 010°37'0 0.0
2016-Jun-16 07:33N 57°41' E 010°37'0 0.0
2016-Jun-16 06:33N 57°41' E 010°37'0 0.0
2016-Jun-16 05:33N 57°41' E 010°37'0 0.0
2016-Jun-16 04:33N 57°41' E 010°37'0 0.0
2016-Jun-16 03:33N 57°41' E 010°37'0 0.0
2016-Jun-16 02:30N 57°41' E 010°37'0 0.0
2016-Jun-16 01:33N 57°41' E 010°37'0 0.0
2016-Jun-16 00:33N 57°41' E 010°37'0 0.0
2016-Jun-15 23:30N 57°41' E 010°37'0 0.0
2016-Jun-15 22:33N 57°41' E 010°37'0 0.0
2016-Jun-15 21:18N 57°41' E 010°37'0 0.0
2016-Jun-15 20:33N 57°41' E 010°37'0 0.0
2016-Jun-15 19:33N 57°41' E 010°37'0 0.0
2016-Jun-15 18:33N 57°41' E 010°37'0 0.0
2016-Jun-15 17:33N 57°41' E 010°37'0 0.1
2016-Jun-15 16:33N 57°41' E 010°37'0 0.0
2016-Jun-15 15:33N 57°41' E 010°37'0 0.0
2016-Jun-15 14:21N 57°41' E 010°37'0 0.0
2016-Jun-15 13:33N 57°41' E 010°37'0 0.0
2016-Jun-15 12:27N 57°41' E 010°37'0 0.0
2016-Jun-15 11:33N 57°41' E 010°37'0 0.0
2016-Jun-15 09:21N 57°41' E 010°37'0 0.0
2016-Jun-15 07:33N 57°41' E 010°37'0 0.0
2016-Jun-15 06:33N 57°41' E 010°37'0 0.0
2016-Jun-15 04:33N 57°41' E 010°37'0 0.0
2016-Jun-15 03:27N 57°41' E 010°37'0 0.0
2016-Jun-15 02:18N 57°41' E 010°37'  

Dump ship's entire track history